sensor_id;sensor_type;location;lat;lon;timestamp;P1;durP1;ratioP1;P2;durP2;ratioP2
5349;SDS011;2697;42.144;24.794;2022-12-18T00:00:27;133.07;;;49.10;;
5349;SDS011;2697;42.144;24.794;2022-12-18T00:02:53;140.23;;;49.27;;
5349;SDS011;2697;42.144;24.794;2022-12-18T00:05:18;133.37;;;48.47;;
5349;SDS011;2697;42.144;24.794;2022-12-18T00:07:43;119.20;;;47.37;;
5349;SDS011;2697;42.144;24.794;2022-12-18T00:10:09;118.20;;;43.70;;
5349;SDS011;2697;42.144;24.794;2022-12-18T00:12:34;123.57;;;43.33;;
5349;SDS011;2697;42.144;24.794;2022-12-18T00:14:59;106.73;;;43.10;;
5349;SDS011;2697;42.144;24.794;2022-12-18T00:17:25;131.33;;;43.30;;
5349;SDS011;2697;42.144;24.794;2022-12-18T00:19:50;122.83;;;42.20;;
5349;SDS011;2697;42.144;24.794;2022-12-18T00:22:16;101.93;;;43.13;;
5349;SDS011;2697;42.144;24.794;2022-12-18T00:24:42;117.33;;;42.67;;
5349;SDS011;2697;42.144;24.794;2022-12-18T00:27:08;106.83;;;41.80;;
5349;SDS011;2697;42.144;24.794;2022-12-18T00:29:33;109.30;;;40.67;;
5349;SDS011;2697;42.144;24.794;2022-12-18T00:31:58;114.97;;;42.60;;
5349;SDS011;2697;42.144;24.794;2022-12-18T00:34:24;95.17;;;38.63;;
5349;SDS011;2697;42.144;24.794;2022-12-18T00:36:49;135.43;;;44.60;;
5349;SDS011;2697;42.144;24.794;2022-12-18T00:39:15;121.63;;;44.63;;
5349;SDS011;2697;42.144;24.794;2022-12-18T00:41:40;138.80;;;45.83;;
5349;SDS011;2697;42.144;24.794;2022-12-18T00:44:24;167.03;;;45.23;;
5349;SDS011;2697;42.144;24.794;2022-12-18T00:46:49;777.27;;;103.33;;
5349;SDS011;2697;42.144;24.794;2022-12-18T00:49:16;841.63;;;112.10;;
5349;SDS011;2697;42.144;24.794;2022-12-18T00:51:43;1006.17;;;123.23;;
5349;SDS011;2697;42.144;24.794;2022-12-18T00:54:09;459.23;;;64.17;;
5349;SDS011;2697;42.144;24.794;2022-12-18T00:56:37;1197.60;;;143.37;;
5349;SDS011;2697;42.144;24.794;2022-12-18T00:59:04;672.50;;;89.53;;
5349;SDS011;2697;42.144;24.794;2022-12-18T01:01:29;990.63;;;120.77;;
5349;SDS011;2697;42.144;24.794;2022-12-18T01:03:55;1165.97;;;144.83;;
5349;SDS011;2697;42.144;24.794;2022-12-18T01:06:20;970.63;;;116.27;;
5349;SDS011;2697;42.144;24.794;2022-12-18T01:08:45;1034.07;;;133.90;;
5349;SDS011;2697;42.144;24.794;2022-12-18T01:11:12;540.57;;;75.40;;
5349;SDS011;2697;42.144;24.794;2022-12-18T01:13:39;883.47;;;118.83;;
5349;SDS011;2697;42.144;24.794;2022-12-18T01:16:05;1079.47;;;136.13;;
5349;SDS011;2697;42.144;24.794;2022-12-18T01:18:31;819.47;;;100.57;;
5349;SDS011;2697;42.144;24.794;2022-12-18T01:20:56;502.30;;;69.67;;
5349;SDS011;2697;42.144;24.794;2022-12-18T01:23:21;885.50;;;114.13;;
5349;SDS011;2697;42.144;24.794;2022-12-18T01:25:47;755.77;;;96.43;;
5349;SDS011;2697;42.144;24.794;2022-12-18T01:28:13;243.30;;;56.93;;
5349;SDS011;2697;42.144;24.794;2022-12-18T01:30:38;532.67;;;75.87;;
5349;SDS011;2697;42.144;24.794;2022-12-18T01:33:04;353.87;;;62.07;;
5349;SDS011;2697;42.144;24.794;2022-12-18T01:35:30;190.20;;;47.80;;
5349;SDS011;2697;42.144;24.794;2022-12-18T01:37:56;171.63;;;47.20;;
5349;SDS011;2697;42.144;24.794;2022-12-18T01:40:21;149.03;;;46.90;;
5349;SDS011;2697;42.144;24.794;2022-12-18T01:42:51;170.87;;;47.40;;
5349;SDS011;2697;42.144;24.794;2022-12-18T01:45:24;358.30;;;57.27;;
5349;SDS011;2697;42.144;24.794;2022-12-18T01:53:10;126.00;;;41.60;;
5349;SDS011;2697;42.144;24.794;2022-12-18T01:55:40;104.80;;;40.40;;
5349;SDS011;2697;42.144;24.794;2022-12-18T01:58:13;110.60;;;40.80;;
5349;SDS011;2697;42.144;24.794;2022-12-18T02:00:38;121.30;;;41.73;;
5349;SDS011;2697;42.144;24.794;2022-12-18T02:03:04;120.17;;;42.00;;
5349;SDS011;2697;42.144;24.794;2022-12-18T02:08:30;106.87;;;42.47;;
5349;SDS011;2697;42.144;24.794;2022-12-18T02:13:49;100.93;;;38.70;;
5349;SDS011;2697;42.144;24.794;2022-12-18T02:16:30;91.93;;;35.70;;
5349;SDS011;2697;42.144;24.794;2022-12-18T02:19:00;93.17;;;36.13;;
5349;SDS011;2697;42.144;24.794;2022-12-18T02:21:57;89.87;;;37.07;;
5349;SDS011;2697;42.144;24.794;2022-12-18T02:27:05;92.70;;;36.07;;
5349;SDS011;2697;42.144;24.794;2022-12-18T02:29:37;83.77;;;34.03;;
5349;SDS011;2697;42.144;24.794;2022-12-18T02:32:09;92.43;;;34.30;;
5349;SDS011;2697;42.144;24.794;2022-12-18T02:34:39;83.97;;;32.93;;
5349;SDS011;2697;42.144;24.794;2022-12-18T02:37:07;64.80;;;29.90;;
5349;SDS011;2697;42.144;24.794;2022-12-18T02:39:37;67.53;;;31.50;;
5349;SDS011;2697;42.144;24.794;2022-12-18T02:42:04;71.33;;;27.30;;
5349;SDS011;2697;42.144;24.794;2022-12-18T02:44:33;63.13;;;27.40;;
5349;SDS011;2697;42.144;24.794;2022-12-18T02:47:00;71.47;;;28.47;;
5349;SDS011;2697;42.144;24.794;2022-12-18T02:55:04;66.50;;;29.00;;
5349;SDS011;2697;42.144;24.794;2022-12-18T02:57:55;79.57;;;34.33;;
5349;SDS011;2697;42.144;24.794;2022-12-18T03:00:31;386.73;;;50.73;;
5349;SDS011;2697;42.144;24.794;2022-12-18T03:03:08;886.07;;;92.90;;
5349;SDS011;2697;42.144;24.794;2022-12-18T03:05:40;543.37;;;66.73;;
5349;SDS011;2697;42.144;24.794;2022-12-18T03:08:27;665.47;;;76.00;;
5349;SDS011;2697;42.144;24.794;2022-12-18T03:13:33;301.53;;;49.63;;
5349;SDS011;2697;42.144;24.794;2022-12-18T03:16:02;409.77;;;53.17;;
5349;SDS011;2697;42.144;24.794;2022-12-18T03:18:52;464.93;;;55.70;;
5349;SDS011;2697;42.144;24.794;2022-12-18T03:21:39;501.23;;;58.93;;
5349;SDS011;2697;42.144;24.794;2022-12-18T03:24:10;172.43;;;42.73;;
5349;SDS011;2697;42.144;24.794;2022-12-18T03:26:36;79.07;;;35.50;;
5349;SDS011;2697;42.144;24.794;2022-12-18T03:29:09;69.47;;;31.30;;
5349;SDS011;2697;42.144;24.794;2022-12-18T03:31:41;59.63;;;27.60;;
5349;SDS011;2697;42.144;24.794;2022-12-18T03:34:13;87.00;;;34.70;;
5349;SDS011;2697;42.144;24.794;2022-12-18T03:36:44;69.93;;;30.30;;
5349;SDS011;2697;42.144;24.794;2022-12-18T03:39:09;71.80;;;30.37;;
5349;SDS011;2697;42.144;24.794;2022-12-18T03:41:45;73.37;;;31.00;;
5349;SDS011;2697;42.144;24.794;2022-12-18T03:47:01;58.20;;;24.80;;
5349;SDS011;2697;42.144;24.794;2022-12-18T03:52:26;46.07;;;21.60;;
5349;SDS011;2697;42.144;24.794;2022-12-18T03:54:55;47.13;;;21.00;;
5349;SDS011;2697;42.144;24.794;2022-12-18T03:57:24;46.03;;;23.23;;
5349;SDS011;2697;42.144;24.794;2022-12-18T04:00:00;48.87;;;20.10;;
5349;SDS011;2697;42.144;24.794;2022-12-18T04:02:30;42.63;;;19.13;;
5349;SDS011;2697;42.144;24.794;2022-12-18T04:04:59;40.47;;;20.20;;
5349;SDS011;2697;42.144;24.794;2022-12-18T04:07:27;44.40;;;20.43;;
5349;SDS011;2697;42.144;24.794;2022-12-18T04:09:54;50.07;;;19.70;;
5349;SDS011;2697;42.144;24.794;2022-12-18T04:12:24;33.93;;;15.83;;
5349;SDS011;2697;42.144;24.794;2022-12-18T04:14:51;30.87;;;16.03;;
5349;SDS011;2697;42.144;24.794;2022-12-18T04:17:16;41.57;;;16.27;;
5349;SDS011;2697;42.144;24.794;2022-12-18T04:19:42;34.43;;;16.03;;
5349;SDS011;2697;42.144;24.794;2022-12-18T04:22:09;31.20;;;16.30;;
5349;SDS011;2697;42.144;24.794;2022-12-18T04:24:35;30.47;;;16.10;;
5349;SDS011;2697;42.144;24.794;2022-12-18T04:27:01;27.93;;;15.40;;
5349;SDS011;2697;42.144;24.794;2022-12-18T04:29:26;29.60;;;14.97;;
5349;SDS011;2697;42.144;24.794;2022-12-18T04:31:51;27.50;;;14.10;;
5349;SDS011;2697;42.144;24.794;2022-12-18T04:34:17;27.83;;;13.37;;
5349;SDS011;2697;42.144;24.794;2022-12-18T04:36:42;34.77;;;14.43;;
5349;SDS011;2697;42.144;24.794;2022-12-18T04:39:07;27.30;;;11.47;;
5349;SDS011;2697;42.144;24.794;2022-12-18T04:41:33;28.63;;;12.53;;
5349;SDS011;2697;42.144;24.794;2022-12-18T04:43:58;18.73;;;10.30;;
5349;SDS011;2697;42.144;24.794;2022-12-18T04:46:24;30.00;;;11.47;;
5349;SDS011;2697;42.144;24.794;2022-12-18T04:48:49;16.77;;;9.50;;
5349;SDS011;2697;42.144;24.794;2022-12-18T04:51:14;17.20;;;9.73;;
5349;SDS011;2697;42.144;24.794;2022-12-18T04:53:40;19.10;;;10.00;;
5349;SDS011;2697;42.144;24.794;2022-12-18T04:56:06;13.07;;;8.20;;
5349;SDS011;2697;42.144;24.794;2022-12-18T04:58:37;15.63;;;9.03;;
5349;SDS011;2697;42.144;24.794;2022-12-18T05:01:04;16.37;;;8.67;;
5349;SDS011;2697;42.144;24.794;2022-12-18T05:03:30;14.40;;;8.30;;
5349;SDS011;2697;42.144;24.794;2022-12-18T05:05:56;13.17;;;8.07;;
5349;SDS011;2697;42.144;24.794;2022-12-18T05:08:21;13.10;;;8.13;;
5349;SDS011;2697;42.144;24.794;2022-12-18T05:10:46;14.50;;;7.40;;
5349;SDS011;2697;42.144;24.794;2022-12-18T05:13:12;10.93;;;6.53;;
5349;SDS011;2697;42.144;24.794;2022-12-18T05:15:37;10.37;;;6.10;;
5349;SDS011;2697;42.144;24.794;2022-12-18T05:18:03;11.20;;;6.03;;
5349;SDS011;2697;42.144;24.794;2022-12-18T05:20:29;8.60;;;5.17;;
5349;SDS011;2697;42.144;24.794;2022-12-18T05:22:55;8.83;;;5.07;;
5349;SDS011;2697;42.144;24.794;2022-12-18T05:25:21;8.70;;;5.77;;
5349;SDS011;2697;42.144;24.794;2022-12-18T05:27:47;12.63;;;6.03;;
5349;SDS011;2697;42.144;24.794;2022-12-18T05:30:13;11.50;;;6.13;;
5349;SDS011;2697;42.144;24.794;2022-12-18T05:32:39;7.23;;;5.63;;
5349;SDS011;2697;42.144;24.794;2022-12-18T05:35:05;10.90;;;6.70;;
5349;SDS011;2697;42.144;24.794;2022-12-18T05:37:32;13.87;;;6.50;;
5349;SDS011;2697;42.144;24.794;2022-12-18T05:39:58;11.67;;;6.33;;
5349;SDS011;2697;42.144;24.794;2022-12-18T05:42:23;9.07;;;5.83;;
5349;SDS011;2697;42.144;24.794;2022-12-18T05:44:48;15.47;;;5.40;;
5349;SDS011;2697;42.144;24.794;2022-12-18T05:47:14;12.63;;;6.50;;
5349;SDS011;2697;42.144;24.794;2022-12-18T05:49:39;7.70;;;5.37;;
5349;SDS011;2697;42.144;24.794;2022-12-18T05:52:05;10.23;;;5.50;;
5349;SDS011;2697;42.144;24.794;2022-12-18T05:54:30;11.57;;;6.43;;
5349;SDS011;2697;42.144;24.794;2022-12-18T05:56:56;16.93;;;6.77;;
5349;SDS011;2697;42.144;24.794;2022-12-18T05:59:22;11.47;;;6.47;;
5349;SDS011;2697;42.144;24.794;2022-12-18T06:01:47;10.97;;;6.20;;
5349;SDS011;2697;42.144;24.794;2022-12-18T06:04:13;12.27;;;6.77;;
5349;SDS011;2697;42.144;24.794;2022-12-18T06:06:38;14.50;;;5.10;;
5349;SDS011;2697;42.144;24.794;2022-12-18T06:09:04;7.80;;;5.00;;
5349;SDS011;2697;42.144;24.794;2022-12-18T06:11:34;10.80;;;4.90;;
5349;SDS011;2697;42.144;24.794;2022-12-18T06:14:01;8.57;;;5.17;;
5349;SDS011;2697;42.144;24.794;2022-12-18T06:16:28;11.70;;;5.10;;
5349;SDS011;2697;42.144;24.794;2022-12-18T06:18:57;8.23;;;4.90;;
5349;SDS011;2697;42.144;24.794;2022-12-18T06:21:23;11.27;;;5.30;;
5349;SDS011;2697;42.144;24.794;2022-12-18T06:23:48;9.07;;;5.13;;
5349;SDS011;2697;42.144;24.794;2022-12-18T06:26:14;7.60;;;4.30;;
5349;SDS011;2697;42.144;24.794;2022-12-18T06:28:39;7.20;;;4.30;;
5349;SDS011;2697;42.144;24.794;2022-12-18T06:31:05;7.60;;;5.63;;
5349;SDS011;2697;42.144;24.794;2022-12-18T06:33:31;10.80;;;4.70;;
5349;SDS011;2697;42.144;24.794;2022-12-18T06:36:01;6.77;;;4.30;;
5349;SDS011;2697;42.144;24.794;2022-12-18T06:38:28;8.97;;;5.17;;
5349;SDS011;2697;42.144;24.794;2022-12-18T06:40:54;6.93;;;4.70;;
5349;SDS011;2697;42.144;24.794;2022-12-18T06:43:19;9.03;;;4.97;;
5349;SDS011;2697;42.144;24.794;2022-12-18T06:45:44;10.60;;;4.60;;
5349;SDS011;2697;42.144;24.794;2022-12-18T06:48:11;6.73;;;4.30;;
5349;SDS011;2697;42.144;24.794;2022-12-18T06:50:36;7.03;;;4.63;;
5349;SDS011;2697;42.144;24.794;2022-12-18T06:53:01;13.30;;;7.57;;
5349;SDS011;2697;42.144;24.794;2022-12-18T06:55:27;9.00;;;5.03;;
5349;SDS011;2697;42.144;24.794;2022-12-18T06:57:52;8.60;;;5.77;;
5349;SDS011;2697;42.144;24.794;2022-12-18T07:00:18;13.83;;;5.50;;
5349;SDS011;2697;42.144;24.794;2022-12-18T07:02:43;10.03;;;5.17;;
5349;SDS011;2697;42.144;24.794;2022-12-18T07:05:09;13.57;;;5.63;;
5349;SDS011;2697;42.144;24.794;2022-12-18T07:07:34;9.10;;;5.87;;
5349;SDS011;2697;42.144;24.794;2022-12-18T07:10:00;12.50;;;6.43;;
5349;SDS011;2697;42.144;24.794;2022-12-18T07:12:26;10.97;;;5.93;;
5349;SDS011;2697;42.144;24.794;2022-12-18T07:14:52;10.70;;;5.73;;
5349;SDS011;2697;42.144;24.794;2022-12-18T07:17:17;10.37;;;5.80;;
5349;SDS011;2697;42.144;24.794;2022-12-18T07:19:42;8.30;;;5.10;;
5349;SDS011;2697;42.144;24.794;2022-12-18T07:22:08;9.67;;;5.93;;
5349;SDS011;2697;42.144;24.794;2022-12-18T07:24:33;13.50;;;5.90;;
5349;SDS011;2697;42.144;24.794;2022-12-18T07:26:59;10.90;;;5.00;;
5349;SDS011;2697;42.144;24.794;2022-12-18T07:29:24;8.97;;;5.20;;
5349;SDS011;2697;42.144;24.794;2022-12-18T07:31:50;8.03;;;5.00;;
5349;SDS011;2697;42.144;24.794;2022-12-18T07:34:16;7.43;;;4.83;;
5349;SDS011;2697;42.144;24.794;2022-12-18T07:36:42;14.20;;;5.73;;
5349;SDS011;2697;42.144;24.794;2022-12-18T07:39:08;11.33;;;6.03;;
5349;SDS011;2697;42.144;24.794;2022-12-18T07:41:33;8.37;;;5.00;;
5349;SDS011;2697;42.144;24.794;2022-12-18T07:43:59;8.93;;;5.00;;
5349;SDS011;2697;42.144;24.794;2022-12-18T07:46:24;17.07;;;5.70;;
5349;SDS011;2697;42.144;24.794;2022-12-18T07:48:49;16.13;;;6.10;;
5349;SDS011;2697;42.144;24.794;2022-12-18T07:51:15;11.70;;;5.30;;
5349;SDS011;2697;42.144;24.794;2022-12-18T07:53:41;11.63;;;5.90;;
5349;SDS011;2697;42.144;24.794;2022-12-18T07:56:10;16.40;;;7.00;;
5349;SDS011;2697;42.144;24.794;2022-12-18T07:58:37;14.57;;;7.87;;
5349;SDS011;2697;42.144;24.794;2022-12-18T08:01:03;17.47;;;7.30;;
5349;SDS011;2697;42.144;24.794;2022-12-18T08:03:30;13.90;;;6.43;;
5349;SDS011;2697;42.144;24.794;2022-12-18T08:06:02;10.90;;;5.97;;
5349;SDS011;2697;42.144;24.794;2022-12-18T08:08:29;15.37;;;6.60;;
5349;SDS011;2697;42.144;24.794;2022-12-18T08:10:55;12.83;;;6.30;;
5349;SDS011;2697;42.144;24.794;2022-12-18T08:13:21;13.47;;;5.97;;
5349;SDS011;2697;42.144;24.794;2022-12-18T08:15:46;7.93;;;4.73;;
5349;SDS011;2697;42.144;24.794;2022-12-18T08:18:19;10.07;;;5.60;;
5349;SDS011;2697;42.144;24.794;2022-12-18T08:20:45;17.80;;;5.57;;
5349;SDS011;2697;42.144;24.794;2022-12-18T08:23:10;11.07;;;5.23;;
5349;SDS011;2697;42.144;24.794;2022-12-18T08:25:36;11.60;;;6.20;;
5349;SDS011;2697;42.144;24.794;2022-12-18T08:28:01;11.03;;;5.23;;
5349;SDS011;2697;42.144;24.794;2022-12-18T08:30:26;17.73;;;6.00;;
5349;SDS011;2697;42.144;24.794;2022-12-18T08:32:52;11.83;;;4.80;;
5349;SDS011;2697;42.144;24.794;2022-12-18T08:35:18;15.20;;;5.33;;
5349;SDS011;2697;42.144;24.794;2022-12-18T08:37:43;13.00;;;5.20;;
5349;SDS011;2697;42.144;24.794;2022-12-18T08:40:09;8.63;;;5.07;;
5349;SDS011;2697;42.144;24.794;2022-12-18T08:42:35;10.53;;;4.80;;
5349;SDS011;2697;42.144;24.794;2022-12-18T08:45:19;8.47;;;5.37;;
5349;SDS011;2697;42.144;24.794;2022-12-18T08:47:44;9.60;;;5.43;;
5349;SDS011;2697;42.144;24.794;2022-12-18T08:50:09;10.37;;;5.43;;
5349;SDS011;2697;42.144;24.794;2022-12-18T08:52:36;9.83;;;5.60;;
5349;SDS011;2697;42.144;24.794;2022-12-18T08:55:02;11.77;;;6.90;;
5349;SDS011;2697;42.144;24.794;2022-12-18T08:57:27;10.90;;;5.30;;
5349;SDS011;2697;42.144;24.794;2022-12-18T08:59:53;10.33;;;5.77;;
5349;SDS011;2697;42.144;24.794;2022-12-18T09:02:18;9.87;;;5.83;;
5349;SDS011;2697;42.144;24.794;2022-12-18T09:04:43;10.13;;;5.47;;
5349;SDS011;2697;42.144;24.794;2022-12-18T09:07:12;11.10;;;5.80;;
5349;SDS011;2697;42.144;24.794;2022-12-18T09:09:37;11.80;;;5.43;;
5349;SDS011;2697;42.144;24.794;2022-12-18T09:12:03;14.30;;;5.30;;
5349;SDS011;2697;42.144;24.794;2022-12-18T09:14:28;12.80;;;6.23;;
5349;SDS011;2697;42.144;24.794;2022-12-18T09:16:54;8.90;;;4.77;;
5349;SDS011;2697;42.144;24.794;2022-12-18T09:19:19;9.20;;;5.07;;
5349;SDS011;2697;42.144;24.794;2022-12-18T09:21:45;12.20;;;6.47;;
5349;SDS011;2697;42.144;24.794;2022-12-18T09:24:16;13.23;;;6.53;;
5349;SDS011;2697;42.144;24.794;2022-12-18T09:26:41;12.17;;;6.00;;
5349;SDS011;2697;42.144;24.794;2022-12-18T09:29:07;16.97;;;5.90;;
5349;SDS011;2697;42.144;24.794;2022-12-18T09:31:33;8.80;;;5.03;;
5349;SDS011;2697;42.144;24.794;2022-12-18T09:33:58;9.90;;;5.53;;
5349;SDS011;2697;42.144;24.794;2022-12-18T09:36:24;14.40;;;6.50;;
5349;SDS011;2697;42.144;24.794;2022-12-18T09:38:49;13.47;;;6.27;;
5349;SDS011;2697;42.144;24.794;2022-12-18T09:44:00;22.50;;;8.90;;
5349;SDS011;2697;42.144;24.794;2022-12-18T09:46:31;13.87;;;6.17;;
5349;SDS011;2697;42.144;24.794;2022-12-18T09:49:01;14.43;;;5.90;;
5349;SDS011;2697;42.144;24.794;2022-12-18T09:51:35;15.60;;;4.83;;
5349;SDS011;2697;42.144;24.794;2022-12-18T09:54:06;16.63;;;6.97;;
5349;SDS011;2697;42.144;24.794;2022-12-18T09:56:38;9.60;;;6.03;;
5349;SDS011;2697;42.144;24.794;2022-12-18T09:59:12;11.07;;;6.00;;
5349;SDS011;2697;42.144;24.794;2022-12-18T10:01:41;14.43;;;5.73;;
5349;SDS011;2697;42.144;24.794;2022-12-18T10:04:08;12.00;;;6.10;;
5349;SDS011;2697;42.144;24.794;2022-12-18T10:11:40;16.83;;;7.07;;
5349;SDS011;2697;42.144;24.794;2022-12-18T10:19:37;13.57;;;6.47;;
5349;SDS011;2697;42.144;24.794;2022-12-18T10:25:22;10.20;;;6.70;;
5349;SDS011;2697;42.144;24.794;2022-12-18T10:27:48;10.87;;;5.97;;
5349;SDS011;2697;42.144;24.794;2022-12-18T10:30:19;15.70;;;8.13;;
5349;SDS011;2697;42.144;24.794;2022-12-18T10:32:46;13.57;;;6.70;;
5349;SDS011;2697;42.144;24.794;2022-12-18T10:35:16;16.33;;;7.47;;
5349;SDS011;2697;42.144;24.794;2022-12-18T10:38:04;13.67;;;7.20;;
5349;SDS011;2697;42.144;24.794;2022-12-18T10:40:47;13.53;;;6.70;;
5349;SDS011;2697;42.144;24.794;2022-12-18T10:43:39;13.73;;;6.83;;
5349;SDS011;2697;42.144;24.794;2022-12-18T10:48:49;14.37;;;7.73;;
5349;SDS011;2697;42.144;24.794;2022-12-18T10:51:25;15.17;;;8.63;;
5349;SDS011;2697;42.144;24.794;2022-12-18T10:54:00;14.07;;;6.90;;
5349;SDS011;2697;42.144;24.794;2022-12-18T10:56:29;10.70;;;7.10;;
5349;SDS011;2697;42.144;24.794;2022-12-18T10:59:00;11.17;;;5.33;;
5349;SDS011;2697;42.144;24.794;2022-12-18T11:01:28;15.63;;;6.90;;
5349;SDS011;2697;42.144;24.794;2022-12-18T11:04:21;18.70;;;8.37;;
5349;SDS011;2697;42.144;24.794;2022-12-18T11:06:59;14.23;;;6.83;;
5349;SDS011;2697;42.144;24.794;2022-12-18T11:09:28;10.97;;;5.80;;
5349;SDS011;2697;42.144;24.794;2022-12-18T11:11:58;12.80;;;6.63;;
5349;SDS011;2697;42.144;24.794;2022-12-18T11:14:42;13.33;;;6.93;;
5349;SDS011;2697;42.144;24.794;2022-12-18T11:17:43;11.13;;;5.40;;
5349;SDS011;2697;42.144;24.794;2022-12-18T11:20:04;16.00;;;6.50;;
5349;SDS011;2697;42.144;24.794;2022-12-18T11:22:35;12.40;;;6.57;;
5349;SDS011;2697;42.144;24.794;2022-12-18T11:27:36;14.07;;;7.30;;
5349;SDS011;2697;42.144;24.794;2022-12-18T11:30:22;13.43;;;6.67;;
5349;SDS011;2697;42.144;24.794;2022-12-18T11:35:50;18.60;;;7.50;;
5349;SDS011;2697;42.144;24.794;2022-12-18T11:38:26;15.13;;;9.43;;
5349;SDS011;2697;42.144;24.794;2022-12-18T11:41:05;16.63;;;7.67;;
5349;SDS011;2697;42.144;24.794;2022-12-18T11:43:43;39.67;;;9.43;;
5349;SDS011;2697;42.144;24.794;2022-12-18T11:46:17;21.13;;;7.93;;
5349;SDS011;2697;42.144;24.794;2022-12-18T11:49:11;15.80;;;6.00;;
5349;SDS011;2697;42.144;24.794;2022-12-18T11:54:15;11.20;;;6.70;;
5349;SDS011;2697;42.144;24.794;2022-12-18T12:00:19;15.00;;;7.60;;
5349;SDS011;2697;42.144;24.794;2022-12-18T12:08:49;23.73;;;11.20;;
5349;SDS011;2697;42.144;24.794;2022-12-18T12:11:25;22.40;;;11.30;;
5349;SDS011;2697;42.144;24.794;2022-12-18T12:16:44;23.00;;;9.90;;
5349;SDS011;2697;42.144;24.794;2022-12-18T12:28:05;18.27;;;9.10;;
5349;SDS011;2697;42.144;24.794;2022-12-18T12:39:16;16.70;;;8.37;;
5349;SDS011;2697;42.144;24.794;2022-12-18T12:41:46;16.77;;;7.50;;
5349;SDS011;2697;42.144;24.794;2022-12-18T12:44:33;17.93;;;8.60;;
5349;SDS011;2697;42.144;24.794;2022-12-18T12:47:07;23.67;;;9.50;;
5349;SDS011;2697;42.144;24.794;2022-12-18T12:49:41;16.30;;;8.13;;
5349;SDS011;2697;42.144;24.794;2022-12-18T12:52:13;16.00;;;8.30;;
5349;SDS011;2697;42.144;24.794;2022-12-18T12:54:42;18.63;;;7.43;;
5349;SDS011;2697;42.144;24.794;2022-12-18T12:57:16;15.80;;;7.90;;
5349;SDS011;2697;42.144;24.794;2022-12-18T13:04:59;16.50;;;8.03;;
5349;SDS011;2697;42.144;24.794;2022-12-18T13:07:51;18.37;;;7.10;;
5349;SDS011;2697;42.144;24.794;2022-12-18T13:10:26;16.33;;;7.37;;
5349;SDS011;2697;42.144;24.794;2022-12-18T13:13:09;16.83;;;8.57;;
5349;SDS011;2697;42.144;24.794;2022-12-18T13:18:09;23.30;;;10.30;;
5349;SDS011;2697;42.144;24.794;2022-12-18T13:20:45;17.30;;;9.43;;
5349;SDS011;2697;42.144;24.794;2022-12-18T13:23:20;16.40;;;9.00;;
5349;SDS011;2697;42.144;24.794;2022-12-18T13:36:47;26.47;;;11.00;;
5349;SDS011;2697;42.144;24.794;2022-12-18T13:41:38;18.23;;;8.33;;
5349;SDS011;2697;42.144;24.794;2022-12-18T13:49:57;29.57;;;9.80;;
5349;SDS011;2697;42.144;24.794;2022-12-18T13:52:28;16.93;;;9.00;;
5349;SDS011;2697;42.144;24.794;2022-12-18T13:54:59;22.70;;;10.70;;
5349;SDS011;2697;42.144;24.794;2022-12-18T13:59:54;31.80;;;10.13;;
5349;SDS011;2697;42.144;24.794;2022-12-18T14:02:21;24.33;;;10.20;;
5349;SDS011;2697;42.144;24.794;2022-12-18T14:04:49;32.20;;;11.07;;
5349;SDS011;2697;42.144;24.794;2022-12-18T14:07:19;22.43;;;11.10;;
5349;SDS011;2697;42.144;24.794;2022-12-18T14:09:59;25.90;;;11.73;;
5349;SDS011;2697;42.144;24.794;2022-12-18T14:12:27;30.73;;;15.87;;
5349;SDS011;2697;42.144;24.794;2022-12-18T14:17:54;21.50;;;10.53;;
5349;SDS011;2697;42.144;24.794;2022-12-18T14:20:27;27.83;;;9.83;;
5349;SDS011;2697;42.144;24.794;2022-12-18T14:22:54;23.50;;;11.70;;
5349;SDS011;2697;42.144;24.794;2022-12-18T14:25:22;27.13;;;10.57;;
5349;SDS011;2697;42.144;24.794;2022-12-18T14:27:53;28.40;;;12.47;;
5349;SDS011;2697;42.144;24.794;2022-12-18T14:30:34;23.67;;;11.43;;
5349;SDS011;2697;42.144;24.794;2022-12-18T14:35:34;26.60;;;12.90;;
5349;SDS011;2697;42.144;24.794;2022-12-18T14:40:47;25.83;;;14.30;;
5349;SDS011;2697;42.144;24.794;2022-12-18T14:43:16;28.20;;;13.40;;
5349;SDS011;2697;42.144;24.794;2022-12-18T14:45:42;27.10;;;12.93;;
5349;SDS011;2697;42.144;24.794;2022-12-18T14:48:19;30.67;;;12.53;;
5349;SDS011;2697;42.144;24.794;2022-12-18T14:50:53;27.33;;;12.70;;
5349;SDS011;2697;42.144;24.794;2022-12-18T14:53:44;34.47;;;13.70;;
5349;SDS011;2697;42.144;24.794;2022-12-18T14:56:15;29.60;;;13.50;;
5349;SDS011;2697;42.144;24.794;2022-12-18T14:58:47;25.97;;;13.40;;
5349;SDS011;2697;42.144;24.794;2022-12-18T15:01:36;28.43;;;13.40;;
5349;SDS011;2697;42.144;24.794;2022-12-18T15:07:18;34.17;;;15.00;;
5349;SDS011;2697;42.144;24.794;2022-12-18T15:10:08;36.50;;;15.87;;
5349;SDS011;2697;42.144;24.794;2022-12-18T15:12:44;35.47;;;17.67;;
5349;SDS011;2697;42.144;24.794;2022-12-18T15:17:59;36.53;;;17.90;;
5349;SDS011;2697;42.144;24.794;2022-12-18T15:20:25;33.10;;;15.80;;
5349;SDS011;2697;42.144;24.794;2022-12-18T15:22:51;33.20;;;15.47;;
5349;SDS011;2697;42.144;24.794;2022-12-18T15:25:22;55.80;;;19.20;;
5349;SDS011;2697;42.144;24.794;2022-12-18T15:27:56;33.17;;;17.13;;
5349;SDS011;2697;42.144;24.794;2022-12-18T15:30:22;36.73;;;17.23;;
5349;SDS011;2697;42.144;24.794;2022-12-18T15:32:49;31.87;;;17.23;;
5349;SDS011;2697;42.144;24.794;2022-12-18T15:37:45;38.43;;;18.20;;
5349;SDS011;2697;42.144;24.794;2022-12-18T15:40:12;38.57;;;17.03;;
5349;SDS011;2697;42.144;24.794;2022-12-18T15:42:43;39.53;;;17.00;;
5349;SDS011;2697;42.144;24.794;2022-12-18T15:45:28;38.60;;;18.10;;
5349;SDS011;2697;42.144;24.794;2022-12-18T15:47:54;30.43;;;16.67;;
5349;SDS011;2697;42.144;24.794;2022-12-18T15:50:19;36.17;;;16.30;;
5349;SDS011;2697;42.144;24.794;2022-12-18T15:52:45;29.97;;;15.00;;
5349;SDS011;2697;42.144;24.794;2022-12-18T15:55:24;23.87;;;13.87;;
5349;SDS011;2697;42.144;24.794;2022-12-18T15:58:08;24.97;;;13.20;;
5349;SDS011;2697;42.144;24.794;2022-12-18T16:00:35;31.57;;;14.53;;
5349;SDS011;2697;42.144;24.794;2022-12-18T16:03:03;29.47;;;14.30;;
5349;SDS011;2697;42.144;24.794;2022-12-18T16:05:29;26.40;;;12.80;;
5349;SDS011;2697;42.144;24.794;2022-12-18T16:07:54;19.10;;;10.53;;
5349;SDS011;2697;42.144;24.794;2022-12-18T16:10:20;18.10;;;9.90;;
5349;SDS011;2697;42.144;24.794;2022-12-18T16:12:45;24.57;;;11.33;;
5349;SDS011;2697;42.144;24.794;2022-12-18T16:15:14;18.37;;;10.97;;
5349;SDS011;2697;42.144;24.794;2022-12-18T16:17:41;21.73;;;11.97;;
5349;SDS011;2697;42.144;24.794;2022-12-18T16:20:17;24.17;;;11.10;;
5349;SDS011;2697;42.144;24.794;2022-12-18T16:22:45;26.27;;;11.17;;
5349;SDS011;2697;42.144;24.794;2022-12-18T16:25:17;18.90;;;10.73;;
5349;SDS011;2697;42.144;24.794;2022-12-18T16:27:46;21.57;;;10.63;;
5349;SDS011;2697;42.144;24.794;2022-12-18T16:30:15;20.80;;;10.33;;
5349;SDS011;2697;42.144;24.794;2022-12-18T16:32:45;22.60;;;10.37;;
5349;SDS011;2697;42.144;24.794;2022-12-18T16:35:11;33.00;;;11.70;;
5349;SDS011;2697;42.144;24.794;2022-12-18T16:37:38;16.93;;;8.40;;
5349;SDS011;2697;42.144;24.794;2022-12-18T16:40:04;22.43;;;12.50;;
5349;SDS011;2697;42.144;24.794;2022-12-18T16:42:33;27.27;;;9.90;;
5349;SDS011;2697;42.144;24.794;2022-12-18T16:44:59;16.77;;;8.37;;
5349;SDS011;2697;42.144;24.794;2022-12-18T16:47:25;23.43;;;10.20;;
5349;SDS011;2697;42.144;24.794;2022-12-18T16:49:50;20.10;;;8.83;;
5349;SDS011;2697;42.144;24.794;2022-12-18T16:52:17;17.53;;;9.57;;
5349;SDS011;2697;42.144;24.794;2022-12-18T16:54:43;23.10;;;11.93;;
5349;SDS011;2697;42.144;24.794;2022-12-18T16:57:10;18.60;;;10.50;;
5349;SDS011;2697;42.144;24.794;2022-12-18T16:59:38;20.33;;;10.03;;
5349;SDS011;2697;42.144;24.794;2022-12-18T17:02:04;17.37;;;9.00;;